My Meet Scores
Paige Grund, St. Charles Gymnastics Academy - MyMeetScores.com
Top100 | Top Teams | Upcoming Meets | Completed Meets | Latest | Add Scores | Help| Support | Bookmark and Share

Paige Grund, St. Charles Gymnastics Academy
Personal Bests
LevelVault BarsBeamFloorAA
39.1758.750 9.1009.40036.375
49.2009.500 9.4759.45037.400
XP9.0509.075 9.1009.42535.450
Meet Scores
Date Meet Team Session Level Division Vault Bars Beam Floor AA
2021-03-26 Illinois State Meet Level 9,10, Platinum, Dia St. Charles Gymnastics Academy 01 XP Jr B 8.700 21T 7.900 21 9.100 8 9.100 15T 34.800 17
2021-02-19 BIG Classic 2021 St. Charles Gymnastics Academy 10A XP Senior A 8.800 11 8.150 12 8.400 9 9.100 7 34.450 10
2021-01-21 King Arthur Invitational St. Charles Gymnastics Academy 9 XP CH 8.700 11 7.850 13 8.925 8 9.125 10 34.600 11
2020-02-28 MEGA Spring Invite 2020 St. Charles Gymnastics Academy 9 XP Junior A 9.050 13 9.075 11 7.900 16 9.425 5 35.450 10
2020-02-21 Great Western Invitational - Women's St. Charles Gymnastics Academy 08 XP Filly 8.300 16T 8.000 15 8.450 14 8.900 15T 33.650 16
2020-01-24 King Arthur Invitational St. Charles Gymnastics Academy 10 XP JR A 8.700 9T 8.600 10 8.250 11T 9.075 6 34.625 9
2020-01-10 St Jude Benefit Meet St. Charles Gymnastics Academy 6C XP Jr A 9.025 6 8.500 6 7.525 13 8.600 12 33.650 12
2019-12-13 2019 St Nick St. Charles Gymnastics Academy 4 XP JrA 9.025 7T 7.900 11 8.650 12 8.900 8T 34.475 12
2019-03-22 Illinois Gymnastics State Championships St. Charles Gymnastics Academy 5 4 JR C 9.150 2* 9.500 6 9.400 10 9.350 5* 37.400 4T
2019-02-08 IGI Chicago Style 2019 St. Charles Gymnastics Academy 38 4 231 Lakeshore L4 C 8.200 18 8.900 13 9.300 7 9.125 5 35.525 11
2019-01-25 King Arthur Invitational St. Charles Gymnastics Academy 9 4 SR B 8.850 1 9.375 1 9.350 2 9.450 1 37.025 1
2019-01-11 St Jude Benefit Meet St. Charles Gymnastics Academy 7A 4 Sr A 9.200 2T 8.975 5 9.450 3 9.300 3 36.925 1
2018-12-07 St. Nick Invite 2018 St. Charles Gymnastics Academy 5A 4 SrB 8.150 16 8.750 8T 9.450 1 9.300 1 35.650 8
2018-03-08 Level 4 & 5 State St. Charles Gymnastics Academy All 4 Yh B 8.050 26T 8.800 10 8.650 21T 9.275 6 34.775 15
2018-02-23 Kinetic Classic St. Charles Gymnastics Academy 7 4 Middle 7.950 67T 8.400 61T 9.250 24T 8.800 56T 34.400 54
2018-02-16 Big Classic St. Charles Gymnastics Academy 7B 4 Child C 8.475 7T 8.875 9 9.475 5 9.025 8T 35.850 7
2018-01-26 King Arthur Invitational St. Charles Gymnastics Academy 6 4 JR B 8.375 20 7.850 20 8.825 15 9.000 4T 34.050 15
2018-01-12 St Jude Benefit Meet St. Charles Gymnastics Academy 2A 4 JrC 8.025 13 8.350 10 9.450 2 8.750 7T 34.575 8
2017-12-14 2017 Women's Hawaiian Pineapple Classic St. Charles Gymnastics Academy 6A 4 Age9 7.550 19T 7.900 17T 8.225 10 8.500 13 32.175 13
2017-12-01 Ultimate Wish Classic St. Charles Gymnastics Academy 6 4 Jr C 7.900 11T 7.800 11T 9.125 5 8.750 4 33.575 6
2017-11-17 SCGA Classic St. Charles Gymnastics Academy 2 4 JrA 8.250 12 6.900 12 8.525 9 9.000 5 32.675 12
2017-02-24 Kinetic Classic St. Charles Gymnastics Academy 4,5,6,7 3 All Ages 9.125 43T 8.750 70T 9.100 33T 9.400 9T 36.375 35
2017-01-20 2017 Bravo Classic St. Charles Gymnastics Academy 12B 3 8yrs 9.175 10 7.150 21 8.625 20 9.050 6T 34.000 17
2016-12-15 2016 Hawaiian Pineapple Sanction St. Charles Gymnastics Academy 5B 3 Age 8 8.850 18T 7.200 23 8.425 16 8.700 15T 33.175 20
Get your scores on
a t-shirt, pin, or hoodie